sensor_id;sensor_type;location;lat;lon;timestamp;temperature;humidity
35027;DHT22;60696;51.426;6.934;2024-02-28T05:02:11;3.10;1.00
35027;DHT22;60696;51.426;6.934;2024-02-28T05:04:37;3.10;1.00
35027;DHT22;60696;51.426;6.934;2024-02-28T05:07:02;3.10;1.00
35027;DHT22;60696;51.426;6.934;2024-02-28T05:09:29;3.10;1.00
35027;DHT22;60696;51.426;6.934;2024-02-28T05:11:55;3.10;1.00
35027;DHT22;60696;51.426;6.934;2024-02-28T05:14:20;3.10;1.00
35027;DHT22;60696;51.426;6.934;2024-02-28T05:16:49;3.10;1.00
35027;DHT22;60696;51.426;6.934;2024-02-28T05:19:14;3.10;1.00
35027;DHT22;60696;51.426;6.934;2024-02-28T05:21:43;3.10;1.00
35027;DHT22;60696;51.426;6.934;2024-02-28T05:24:09;3.10;1.00
35027;DHT22;60696;51.426;6.934;2024-02-28T05:26:35;3.10;1.00
35027;DHT22;60696;51.426;6.934;2024-02-28T05:29:02;3.10;1.00
35027;DHT22;60696;51.426;6.934;2024-02-28T05:31:28;3.10;1.00
35027;DHT22;60696;51.426;6.934;2024-02-28T05:33:55;3.10;1.00
35027;DHT22;60696;51.426;6.934;2024-02-28T05:36:26;3.20;1.00
35027;DHT22;60696;51.426;6.934;2024-02-28T05:38:52;3.20;1.00
35027;DHT22;60696;51.426;6.934;2024-02-28T05:41:19;3.20;1.00
35027;DHT22;60696;51.426;6.934;2024-02-28T05:43:45;3.20;1.00
35027;DHT22;60696;51.426;6.934;2024-02-28T05:46:11;3.20;1.00
35027;DHT22;60696;51.426;6.934;2024-02-28T05:48:37;3.20;1.00
35027;DHT22;60696;51.426;6.934;2024-02-28T05:51:03;3.20;1.00
35027;DHT22;60696;51.426;6.934;2024-02-28T05:53:29;3.20;1.00
35027;DHT22;60696;51.426;6.934;2024-02-28T05:56:01;3.20;1.00
35027;DHT22;60696;51.426;6.934;2024-02-28T05:58:27;3.30;6.00
35027;DHT22;60696;51.426;6.934;2024-02-28T06:00:53;3.30;1.00
35027;DHT22;60696;51.426;6.934;2024-02-28T06:03:19;3.30;1.00
35027;DHT22;60696;51.426;6.934;2024-02-28T06:05:44;3.30;1.00
35027;DHT22;60696;51.426;6.934;2024-02-28T06:08:10;3.30;1.00
35027;DHT22;60696;51.426;6.934;2024-02-28T06:10:35;3.30;1.00
35027;DHT22;60696;51.426;6.934;2024-02-28T06:13:02;3.30;1.00
35027;DHT22;60696;51.426;6.934;2024-02-28T06:15:28;3.30;1.00
35027;DHT22;60696;51.426;6.934;2024-02-28T06:17:56;3.30;1.00
35027;DHT22;60696;51.426;6.934;2024-02-28T06:20:22;3.30;1.00
35027;DHT22;60696;51.426;6.934;2024-02-28T06:22:48;3.30;1.00
35027;DHT22;60696;51.426;6.934;2024-02-28T06:25:13;3.20;1.00
35027;DHT22;60696;51.426;6.934;2024-02-28T06:27:43;3.20;1.00
35027;DHT22;60696;51.426;6.934;2024-02-28T06:30:09;3.30;1.00
35027;DHT22;60696;51.426;6.934;2024-02-28T06:32:34;3.30;1.00
35027;DHT22;60696;51.426;6.934;2024-02-28T06:35:00;3.30;1.00
35027;DHT22;60696;51.426;6.934;2024-02-28T06:37:26;3.30;1.00
35027;DHT22;60696;51.426;6.934;2024-02-28T06:39:51;3.30;1.00
35027;DHT22;60696;51.426;6.934;2024-02-28T06:42:18;3.20;1.00
35027;DHT22;60696;51.426;6.934;2024-02-28T06:44:43;3.20;1.00
35027;DHT22;60696;51.426;6.934;2024-02-28T06:47:09;3.20;1.00
35027;DHT22;60696;51.426;6.934;2024-02-28T06:49:34;3.30;1.00
35027;DHT22;60696;51.426;6.934;2024-02-28T06:52:00;3.30;1.00
35027;DHT22;60696;51.426;6.934;2024-02-28T06:54:27;3.20;1.00
35027;DHT22;60696;51.426;6.934;2024-02-28T06:56:53;3.30;1.00
35027;DHT22;60696;51.426;6.934;2024-02-28T06:59:18;3.30;1.00
35027;DHT22;60696;51.426;6.934;2024-02-28T07:01:44;3.30;1.00
35027;DHT22;60696;51.426;6.934;2024-02-28T07:04:10;3.40;1.00
35027;DHT22;60696;51.426;6.934;2024-02-28T07:06:35;3.30;1.00
35027;DHT22;60696;51.426;6.934;2024-02-28T07:09:01;3.40;1.00
35027;DHT22;60696;51.426;6.934;2024-02-28T07:11:27;3.50;1.00
35027;DHT22;60696;51.426;6.934;2024-02-28T07:13:52;3.50;1.00
35027;DHT22;60696;51.426;6.934;2024-02-28T07:16:18;3.50;1.00
35027;DHT22;60696;51.426;6.934;2024-02-28T07:18:43;3.60;1.00
35027;DHT22;60696;51.426;6.934;2024-02-28T07:21:09;3.50;99.90
35027;DHT22;60696;51.426;6.934;2024-02-28T07:23:34;3.60;99.90
35027;DHT22;60696;51.426;6.934;2024-02-28T07:26:00;3.60;99.90
35027;DHT22;60696;51.426;6.934;2024-02-28T07:28:25;3.60;99.90
35027;DHT22;60696;51.426;6.934;2024-02-28T07:30:51;3.70;99.90
35027;DHT22;60696;51.426;6.934;2024-02-28T07:33:17;3.70;99.90
35027;DHT22;60696;51.426;6.934;2024-02-28T07:35:49;3.70;99.90
35027;DHT22;60696;51.426;6.934;2024-02-28T07:38:15;3.80;99.90
35027;DHT22;60696;51.426;6.934;2024-02-28T07:40:43;3.80;62.20
35027;DHT22;60696;51.426;6.934;2024-02-28T07:43:09;3.90;15.20
35027;DHT22;60696;51.426;6.934;2024-02-28T07:45:34;3.90;1.00
35027;DHT22;60696;51.426;6.934;2024-02-28T07:48:00;3.90;1.00
35027;DHT22;60696;51.426;6.934;2024-02-28T07:50:26;3.90;1.00
35027;DHT22;60696;51.426;6.934;2024-02-28T07:52:55;4.00;1.00
35027;DHT22;60696;51.426;6.934;2024-02-28T07:55:20;3.90;1.00
35027;DHT22;60696;51.426;6.934;2024-02-28T07:57:53;3.90;1.00
35027;DHT22;60696;51.426;6.934;2024-02-28T08:00:19;4.00;1.00
35027;DHT22;60696;51.426;6.934;2024-02-28T08:02:45;3.90;99.90
35027;DHT22;60696;51.426;6.934;2024-02-28T08:05:12;3.90;1.00
35027;DHT22;60696;51.426;6.934;2024-02-28T08:07:38;3.90;1.00
35027;DHT22;60696;51.426;6.934;2024-02-28T08:10:04;3.80;99.90
35027;DHT22;60696;51.426;6.934;2024-02-28T08:12:33;3.80;1.00
35027;DHT22;60696;51.426;6.934;2024-02-28T08:14:58;4.00;99.90
35027;DHT22;60696;51.426;6.934;2024-02-28T08:17:24;4.00;99.90
35027;DHT22;60696;51.426;6.934;2024-02-28T08:19:49;4.10;99.90
35027;DHT22;60696;51.426;6.934;2024-02-28T08:22:15;4.20;99.90
35027;DHT22;60696;51.426;6.934;2024-02-28T08:24:41;4.20;99.90
35027;DHT22;60696;51.426;6.934;2024-02-28T08:27:07;4.30;99.90
35027;DHT22;60696;51.426;6.934;2024-02-28T08:29:32;4.40;76.90
35027;DHT22;60696;51.426;6.934;2024-02-28T08:32:01;4.50;1.00
35027;DHT22;60696;51.426;6.934;2024-02-28T08:34:26;4.50;1.00
35027;DHT22;60696;51.426;6.934;2024-02-28T08:36:52;4.50;1.00
35027;DHT22;60696;51.426;6.934;2024-02-28T08:39:18;4.40;1.00
35027;DHT22;60696;51.426;6.934;2024-02-28T08:41:43;4.50;99.90
35027;DHT22;60696;51.426;6.934;2024-02-28T08:44:09;4.60;1.00
35027;DHT22;60696;51.426;6.934;2024-02-28T08:46:35;4.50;99.90
35027;DHT22;60696;51.426;6.934;2024-02-28T08:49:00;4.40;99.90
35027;DHT22;60696;51.426;6.934;2024-02-28T08:51:26;4.50;99.90
35027;DHT22;60696;51.426;6.934;2024-02-28T08:53:52;4.40;99.90
35027;DHT22;60696;51.426;6.934;2024-02-28T08:56:20;4.50;99.90
35027;DHT22;60696;51.426;6.934;2024-02-28T08:58:46;4.50;99.90
35027;DHT22;60696;51.426;6.934;2024-02-28T09:01:15;4.40;99.90
35027;DHT22;60696;51.426;6.934;2024-02-28T09:03:41;4.30;1.00
35027;DHT22;60696;51.426;6.934;2024-02-28T09:06:06;4.30;99.90
35027;DHT22;60696;51.426;6.934;2024-02-28T09:08:32;4.30;1.00
35027;DHT22;60696;51.426;6.934;2024-02-28T09:10:58;4.30;1.00
35027;DHT22;60696;51.426;6.934;2024-02-28T09:13:24;4.40;1.00
35027;DHT22;60696;51.426;6.934;2024-02-28T09:15:49;4.40;1.00
35027;DHT22;60696;51.426;6.934;2024-02-28T09:18:16;4.60;1.00
35027;DHT22;60696;51.426;6.934;2024-02-28T09:20:42;4.70;99.90
35027;DHT22;60696;51.426;6.934;2024-02-28T09:23:08;4.70;99.90
35027;DHT22;60696;51.426;6.934;2024-02-28T09:25:33;4.60;99.90
35027;DHT22;60696;51.426;6.934;2024-02-28T09:28:01;4.60;99.90
35027;DHT22;60696;51.426;6.934;2024-02-28T09:30:27;4.60;1.00
35027;DHT22;60696;51.426;6.934;2024-02-28T09:32:53;4.70;99.90
35027;DHT22;60696;51.426;6.934;2024-02-28T09:35:20;4.70;99.90
35027;DHT22;60696;51.426;6.934;2024-02-28T09:37:45;4.80;99.90
35027;DHT22;60696;51.426;6.934;2024-02-28T09:40:12;4.70;99.90
35027;DHT22;60696;51.426;6.934;2024-02-28T09:42:38;4.80;99.90
35027;DHT22;60696;51.426;6.934;2024-02-28T09:45:04;4.80;99.90
35027;DHT22;60696;51.426;6.934;2024-02-28T09:47:30;4.80;99.90
35027;DHT22;60696;51.426;6.934;2024-02-28T09:49:57;4.90;99.90
35027;DHT22;60696;51.426;6.934;2024-02-28T09:52:26;4.80;99.90
35027;DHT22;60696;51.426;6.934;2024-02-28T09:54:53;4.80;99.90
35027;DHT22;60696;51.426;6.934;2024-02-28T09:57:19;4.90;99.90
35027;DHT22;60696;51.426;6.934;2024-02-28T09:59:46;5.00;99.90
35027;DHT22;60696;51.426;6.934;2024-02-28T10:02:15;5.00;99.90
35027;DHT22;60696;51.426;6.934;2024-02-28T10:04:42;5.00;99.90
35027;DHT22;60696;51.426;6.934;2024-02-28T10:07:14;5.00;99.90
35027;DHT22;60696;51.426;6.934;2024-02-28T10:09:42;5.10;99.90
35027;DHT22;60696;51.426;6.934;2024-02-28T10:12:08;5.40;1.00
35027;DHT22;60696;51.426;6.934;2024-02-28T10:14:34;5.50;99.90
35027;DHT22;60696;51.426;6.934;2024-02-28T10:17:00;5.60;99.90
35027;DHT22;60696;51.426;6.934;2024-02-28T10:19:26;5.70;99.90
35027;DHT22;60696;51.426;6.934;2024-02-28T10:21:52;5.80;1.00
35027;DHT22;60696;51.426;6.934;2024-02-28T10:24:17;5.80;99.90
35027;DHT22;60696;51.426;6.934;2024-02-28T10:26:47;5.80;88.50
35027;DHT22;60696;51.426;6.934;2024-02-28T10:29:24;5.70;1.00
35027;DHT22;60696;51.426;6.934;2024-02-28T10:31:56;5.60;71.50
35027;DHT22;60696;51.426;6.934;2024-02-28T10:34:22;5.60;99.90
35027;DHT22;60696;51.426;6.934;2024-02-28T10:36:49;5.60;99.90
35027;DHT22;60696;51.426;6.934;2024-02-28T10:39:15;5.60;99.90
35027;DHT22;60696;51.426;6.934;2024-02-28T10:41:41;5.60;1.00
35027;DHT22;60696;51.426;6.934;2024-02-28T10:44:08;5.70;94.30
35027;DHT22;60696;51.426;6.934;2024-02-28T10:46:37;5.80;96.90
35027;DHT22;60696;51.426;6.934;2024-02-28T10:49:04;5.90;99.90
35027;DHT22;60696;51.426;6.934;2024-02-28T10:51:34;6.00;7.50
35027;DHT22;60696;51.426;6.934;2024-02-28T10:56:34;6.20;99.90
35027;DHT22;60696;51.426;6.934;2024-02-28T10:59:00;6.20;99.90
35027;DHT22;60696;51.426;6.934;2024-02-28T11:01:27;6.30;99.90
35027;DHT22;60696;51.426;6.934;2024-02-28T11:03:53;6.30;99.90
35027;DHT22;60696;51.426;6.934;2024-02-28T11:06:21;6.30;91.40
35027;DHT22;60696;51.426;6.934;2024-02-28T11:08:48;6.30;1.00
35027;DHT22;60696;51.426;6.934;2024-02-28T11:11:23;6.40;1.00
35027;DHT22;60696;51.426;6.934;2024-02-28T11:13:56;6.50;99.90
35027;DHT22;60696;51.426;6.934;2024-02-28T11:16:31;6.60;1.00
35027;DHT22;60696;51.426;6.934;2024-02-28T11:18:57;6.70;1.00
35027;DHT22;60696;51.426;6.934;2024-02-28T11:21:27;6.90;99.90
35027;DHT22;60696;51.426;6.934;2024-02-28T11:24:00;7.00;99.90
35027;DHT22;60696;51.426;6.934;2024-02-28T11:26:26;7.00;99.90
35027;DHT22;60696;51.426;6.934;2024-02-28T11:28:56;7.00;93.30
35027;DHT22;60696;51.426;6.934;2024-02-28T11:31:22;7.10;99.90
35027;DHT22;60696;51.426;6.934;2024-02-28T11:33:47;7.20;99.90
35027;DHT22;60696;51.426;6.934;2024-02-28T11:36:14;7.30;99.90
35027;DHT22;60696;51.426;6.934;2024-02-28T11:38:40;7.80;1.00
35027;DHT22;60696;51.426;6.934;2024-02-28T11:41:06;8.40;99.90
35027;DHT22;60696;51.426;6.934;2024-02-28T11:43:33;8.00;99.90
35027;DHT22;60696;51.426;6.934;2024-02-28T11:46:00;8.20;26.50
35027;DHT22;60696;51.426;6.934;2024-02-28T11:48:26;9.00;82.30
35027;DHT22;60696;51.426;6.934;2024-02-28T11:50:56;9.20;1.00
35027;DHT22;60696;51.426;6.934;2024-02-28T11:53:25;9.30;99.90
35027;DHT22;60696;51.426;6.934;2024-02-28T11:55:52;9.80;99.90
35027;DHT22;60696;51.426;6.934;2024-02-28T11:58:18;9.80;1.00
35027;DHT22;60696;51.426;6.934;2024-02-28T12:00:51;10.40;1.00
35027;DHT22;60696;51.426;6.934;2024-02-28T12:03:21;10.60;99.90
35027;DHT22;60696;51.426;6.934;2024-02-28T12:05:47;10.50;99.90
35027;DHT22;60696;51.426;6.934;2024-02-28T12:08:12;10.60;99.90
35027;DHT22;60696;51.426;6.934;2024-02-28T12:10:38;10.80;1.00
35027;DHT22;60696;51.426;6.934;2024-02-28T12:13:05;11.10;99.90
35027;DHT22;60696;51.426;6.934;2024-02-28T12:15:31;11.20;99.90
35027;DHT22;60696;51.426;6.934;2024-02-28T12:17:57;11.30;99.90
35027;DHT22;60696;51.426;6.934;2024-02-28T12:20:24;11.30;1.00
35027;DHT22;60696;51.426;6.934;2024-02-28T12:22:49;11.20;99.90
35027;DHT22;60696;51.426;6.934;2024-02-28T12:25:15;11.30;99.90
35027;DHT22;60696;51.426;6.934;2024-02-28T12:27:40;11.60;99.90
35027;DHT22;60696;51.426;6.934;2024-02-28T12:30:07;11.30;99.90
35027;DHT22;60696;51.426;6.934;2024-02-28T12:32:33;11.40;99.90
35027;DHT22;60696;51.426;6.934;2024-02-28T12:34:59;11.30;95.70
35027;DHT22;60696;51.426;6.934;2024-02-28T12:37:24;11.10;99.90
35027;DHT22;60696;51.426;6.934;2024-02-28T12:39:50;11.00;99.90
35027;DHT22;60696;51.426;6.934;2024-02-28T12:42:16;10.70;99.90
35027;DHT22;60696;51.426;6.934;2024-02-28T12:44:43;10.70;99.90
35027;DHT22;60696;51.426;6.934;2024-02-28T12:47:12;10.60;99.90
35027;DHT22;60696;51.426;6.934;2024-02-28T12:49:38;10.80;99.90
35027;DHT22;60696;51.426;6.934;2024-02-28T12:52:03;10.70;99.90
35027;DHT22;60696;51.426;6.934;2024-02-28T12:54:30;10.80;99.90
35027;DHT22;60696;51.426;6.934;2024-02-28T12:56:55;10.70;99.90
35027;DHT22;60696;51.426;6.934;2024-02-28T12:59:21;10.60;99.90
35027;DHT22;60696;51.426;6.934;2024-02-28T13:01:47;10.70;99.90
35027;DHT22;60696;51.426;6.934;2024-02-28T13:04:13;10.80;99.90
35027;DHT22;60696;51.426;6.934;2024-02-28T13:06:39;11.00;99.90
35027;DHT22;60696;51.426;6.934;2024-02-28T13:09:05;11.00;99.90
35027;DHT22;60696;51.426;6.934;2024-02-28T13:11:37;11.00;99.90
35027;DHT22;60696;51.426;6.934;2024-02-28T13:14:03;10.80;99.90
35027;DHT22;60696;51.426;6.934;2024-02-28T13:16:30;10.80;99.90
35027;DHT22;60696;51.426;6.934;2024-02-28T13:18:55;10.80;95.40
35027;DHT22;60696;51.426;6.934;2024-02-28T13:21:21;10.80;99.90
35027;DHT22;60696;51.426;6.934;2024-02-28T13:23:47;10.50;99.90
35027;DHT22;60696;51.426;6.934;2024-02-28T13:26:12;10.40;99.90
35027;DHT22;60696;51.426;6.934;2024-02-28T13:28:46;10.40;99.90
35027;DHT22;60696;51.426;6.934;2024-02-28T13:31:11;10.20;99.90
35027;DHT22;60696;51.426;6.934;2024-02-28T13:33:38;10.30;99.90
35027;DHT22;60696;51.426;6.934;2024-02-28T13:36:04;10.30;99.90
35027;DHT22;60696;51.426;6.934;2024-02-28T13:38:30;10.50;99.90
35027;DHT22;60696;51.426;6.934;2024-02-28T13:40:56;10.30;99.90
35027;DHT22;60696;51.426;6.934;2024-02-28T13:43:21;10.30;99.90
35027;DHT22;60696;51.426;6.934;2024-02-28T13:45:49;10.10;99.90
35027;DHT22;60696;51.426;6.934;2024-02-28T13:48:19;10.10;99.90
35027;DHT22;60696;51.426;6.934;2024-02-28T13:50:47;10.10;99.90
35027;DHT22;60696;51.426;6.934;2024-02-28T13:53:14;10.10;99.90
35027;DHT22;60696;51.426;6.934;2024-02-28T13:55:41;10.30;99.90
35027;DHT22;60696;51.426;6.934;2024-02-28T13:58:08;10.20;99.90
35027;DHT22;60696;51.426;6.934;2024-02-28T14:00:35;10.10;51.40
35027;DHT22;60696;51.426;6.934;2024-02-28T14:03:01;10.10;77.40
35027;DHT22;60696;51.426;6.934;2024-02-28T14:05:28;9.90;94.50
35027;DHT22;60696;51.426;6.934;2024-02-28T14:07:54;9.80;99.90
35027;DHT22;60696;51.426;6.934;2024-02-28T14:10:19;9.90;99.90
35027;DHT22;60696;51.426;6.934;2024-02-28T14:12:45;10.00;92.10
35027;DHT22;60696;51.426;6.934;2024-02-28T14:15:10;10.10;81.00
35027;DHT22;60696;51.426;6.934;2024-02-28T14:17:37;9.90;58.50
35027;DHT22;60696;51.426;6.934;2024-02-28T14:20:04;9.90;30.40
35027;DHT22;60696;51.426;6.934;2024-02-28T14:22:30;9.90;41.00
35027;DHT22;60696;51.426;6.934;2024-02-28T14:24:55;9.80;43.80
35027;DHT22;60696;51.426;6.934;2024-02-28T14:27:21;9.70;53.10
35027;DHT22;60696;51.426;6.934;2024-02-28T14:29:47;9.60;66.40
35027;DHT22;60696;51.426;6.934;2024-02-28T14:32:15;9.60;62.80
35027;DHT22;60696;51.426;6.934;2024-02-28T14:34:41;9.60;74.90
35027;DHT22;60696;51.426;6.934;2024-02-28T14:37:06;9.60;77.70
35027;DHT22;60696;51.426;6.934;2024-02-28T14:39:33;9.60;93.90
35027;DHT22;60696;51.426;6.934;2024-02-28T14:41:59;9.70;48.10
35027;DHT22;60696;51.426;6.934;2024-02-28T14:44:25;9.90;68.80
35027;DHT22;60696;51.426;6.934;2024-02-28T14:46:50;9.80;77.60
35027;DHT22;60696;51.426;6.934;2024-02-28T14:49:17;9.80;72.90
35027;DHT22;60696;51.426;6.934;2024-02-28T14:51:43;9.80;75.80
35027;DHT22;60696;51.426;6.934;2024-02-28T14:54:14;9.80;54.20
35027;DHT22;60696;51.426;6.934;2024-02-28T14:56:40;9.90;31.90
35027;DHT22;60696;51.426;6.934;2024-02-28T14:59:05;9.70;34.90
35027;DHT22;60696;51.426;6.934;2024-02-28T15:01:32;9.80;19.60
35027;DHT22;60696;51.426;6.934;2024-02-28T15:03:58;9.70;26.40
35027;DHT22;60696;51.426;6.934;2024-02-28T15:06:23;9.60;28.00
35027;DHT22;60696;51.426;6.934;2024-02-28T15:08:49;9.70;33.70
35027;DHT22;60696;51.426;6.934;2024-02-28T15:11:15;9.60;44.00
35027;DHT22;60696;51.426;6.934;2024-02-28T15:13:41;9.50;23.20
35027;DHT22;60696;51.426;6.934;2024-02-28T15:16:07;9.50;56.30
35027;DHT22;60696;51.426;6.934;2024-02-28T15:18:32;9.50;55.20
35027;DHT22;60696;51.426;6.934;2024-02-28T15:20:59;9.50;59.30
35027;DHT22;60696;51.426;6.934;2024-02-28T15:23:24;9.60;58.20
35027;DHT22;60696;51.426;6.934;2024-02-28T15:25:50;9.70;47.30
35027;DHT22;60696;51.426;6.934;2024-02-28T15:28:20;9.80;29.40
35027;DHT22;60696;51.426;6.934;2024-02-28T15:30:46;9.70;26.10
35027;DHT22;60696;51.426;6.934;2024-02-28T15:33:13;9.70;35.60
35027;DHT22;60696;51.426;6.934;2024-02-28T15:35:39;9.70;27.00
35027;DHT22;60696;51.426;6.934;2024-02-28T15:38:05;9.60;37.20
35027;DHT22;60696;51.426;6.934;2024-02-28T15:40:30;9.40;50.50
35027;DHT22;60696;51.426;6.934;2024-02-28T15:42:56;9.40;34.10
35027;DHT22;60696;51.426;6.934;2024-02-28T15:45:23;9.30;38.70
35027;DHT22;60696;51.426;6.934;2024-02-28T15:47:49;9.20;39.90
35027;DHT22;60696;51.426;6.934;2024-02-28T15:50:16;9.10;41.20
35027;DHT22;60696;51.426;6.934;2024-02-28T15:52:43;9.00;32.80
35027;DHT22;60696;51.426;6.934;2024-02-28T15:55:10;9.10;34.50
35027;DHT22;60696;51.426;6.934;2024-02-28T15:57:39;9.00;37.00
35027;DHT22;60696;51.426;6.934;2024-02-28T16:00:05;9.00;24.40
35027;DHT22;60696;51.426;6.934;2024-02-28T16:02:32;9.00;24.60
35027;DHT22;60696;51.426;6.934;2024-02-28T16:04:57;8.90;22.80
35027;DHT22;60696;51.426;6.934;2024-02-28T16:07:23;8.80;22.20
35027;DHT22;60696;51.426;6.934;2024-02-28T16:09:50;8.70;24.30
35027;DHT22;60696;51.426;6.934;2024-02-28T16:12:15;8.70;18.80
35027;DHT22;60696;51.426;6.934;2024-02-28T16:14:41;8.60;21.30
35027;DHT22;60696;51.426;6.934;2024-02-28T16:17:07;8.60;22.40
35027;DHT22;60696;51.426;6.934;2024-02-28T16:19:32;8.60;17.50
35027;DHT22;60696;51.426;6.934;2024-02-28T16:21:58;8.50;22.80
35027;DHT22;60696;51.426;6.934;2024-02-28T16:24:24;8.50;22.30
35027;DHT22;60696;51.426;6.934;2024-02-28T16:26:49;8.40;26.10
35027;DHT22;60696;51.426;6.934;2024-02-28T16:29:15;8.50;44.10
35027;DHT22;60696;51.426;6.934;2024-02-28T16:31:40;8.50;38.00
35027;DHT22;60696;51.426;6.934;2024-02-28T16:34:08;8.40;49.70
35027;DHT22;60696;51.426;6.934;2024-02-28T16:36:34;8.40;84.10
35027;DHT22;60696;51.426;6.934;2024-02-28T16:38:59;8.30;92.60
35027;DHT22;60696;51.426;6.934;2024-02-28T16:41:25;8.30;94.90
35027;DHT22;60696;51.426;6.934;2024-02-28T16:43:50;8.30;98.90
35027;DHT22;60696;51.426;6.934;2024-02-28T16:46:20;8.20;92.80
35027;DHT22;60696;51.426;6.934;2024-02-28T16:48:45;8.20;99.90
35027;DHT22;60696;51.426;6.934;2024-02-28T16:51:11;8.20;99.90
35027;DHT22;60696;51.426;6.934;2024-02-28T16:53:37;8.10;99.90
35027;DHT22;60696;51.426;6.934;2024-02-28T16:56:03;8.10;99.90
35027;DHT22;60696;51.426;6.934;2024-02-28T16:58:28;8.00;99.90
35027;DHT22;60696;51.426;6.934;2024-02-28T17:00:56;8.00;99.90
35027;DHT22;60696;51.426;6.934;2024-02-28T17:03:22;7.90;99.90
35027;DHT22;60696;51.426;6.934;2024-02-28T17:05:48;7.80;99.90
35027;DHT22;60696;51.426;6.934;2024-02-28T17:08:14;7.70;99.90
35027;DHT22;60696;51.426;6.934;2024-02-28T17:10:40;7.60;99.90
35027;DHT22;60696;51.426;6.934;2024-02-28T17:13:06;7.50;99.90
35027;DHT22;60696;51.426;6.934;2024-02-28T17:15:31;7.50;99.90
35027;DHT22;60696;51.426;6.934;2024-02-28T17:17:57;7.30;99.90
35027;DHT22;60696;51.426;6.934;2024-02-28T17:20:23;7.40;99.90
35027;DHT22;60696;51.426;6.934;2024-02-28T17:22:50;7.40;99.90
35027;DHT22;60696;51.426;6.934;2024-02-28T17:25:16;7.20;99.90
35027;DHT22;60696;51.426;6.934;2024-02-28T17:27:42;7.20;99.90
35027;DHT22;60696;51.426;6.934;2024-02-28T17:30:08;7.30;99.90
35027;DHT22;60696;51.426;6.934;2024-02-28T17:32:34;7.20;99.90
35027;DHT22;60696;51.426;6.934;2024-02-28T17:34:59;7.20;99.90
35027;DHT22;60696;51.426;6.934;2024-02-28T17:37:29;7.20;99.90
35027;DHT22;60696;51.426;6.934;2024-02-28T17:39:55;7.10;99.90
35027;DHT22;60696;51.426;6.934;2024-02-28T17:42:21;7.10;99.90
35027;DHT22;60696;51.426;6.934;2024-02-28T17:44:47;7.00;99.90
35027;DHT22;60696;51.426;6.934;2024-02-28T17:47:13;7.00;99.90
35027;DHT22;60696;51.426;6.934;2024-02-28T17:49:39;7.00;99.90
35027;DHT22;60696;51.426;6.934;2024-02-28T17:52:05;7.00;99.90
35027;DHT22;60696;51.426;6.934;2024-02-28T17:54:31;7.00;99.90
35027;DHT22;60696;51.426;6.934;2024-02-28T17:56:57;7.00;99.90
35027;DHT22;60696;51.426;6.934;2024-02-28T17:59:23;7.00;99.90
35027;DHT22;60696;51.426;6.934;2024-02-28T18:01:49;7.00;99.90
35027;DHT22;60696;51.426;6.934;2024-02-28T18:04:15;7.00;99.90
35027;DHT22;60696;51.426;6.934;2024-02-28T18:06:41;7.10;99.90
35027;DHT22;60696;51.426;6.934;2024-02-28T18:09:06;7.10;99.90
35027;DHT22;60696;51.426;6.934;2024-02-28T18:11:36;7.00;99.90
35027;DHT22;60696;51.426;6.934;2024-02-28T18:14:02;6.90;99.90
35027;DHT22;60696;51.426;6.934;2024-02-28T18:16:29;6.90;99.90
35027;DHT22;60696;51.426;6.934;2024-02-28T18:18:54;7.00;99.90
35027;DHT22;60696;51.426;6.934;2024-02-28T18:21:20;7.00;99.90
35027;DHT22;60696;51.426;6.934;2024-02-28T18:23:46;7.00;99.90
35027;DHT22;60696;51.426;6.934;2024-02-28T18:26:12;7.00;99.90
35027;DHT22;60696;51.426;6.934;2024-02-28T18:28:38;7.00;99.90
35027;DHT22;60696;51.426;6.934;2024-02-28T18:31:04;6.90;99.90
35027;DHT22;60696;51.426;6.934;2024-02-28T18:33:33;6.80;99.90
35027;DHT22;60696;51.426;6.934;2024-02-28T18:35:59;6.70;99.90
35027;DHT22;60696;51.426;6.934;2024-02-28T18:38:26;6.70;99.90
35027;DHT22;60696;51.426;6.934;2024-02-28T18:40:52;6.70;99.90
35027;DHT22;60696;51.426;6.934;2024-02-28T18:43:19;6.80;99.90
35027;DHT22;60696;51.426;6.934;2024-02-28T18:45:45;6.80;99.90
35027;DHT22;60696;51.426;6.934;2024-02-28T18:48:10;6.80;99.90
35027;DHT22;60696;51.426;6.934;2024-02-28T18:50:36;6.80;99.90
35027;DHT22;60696;51.426;6.934;2024-02-28T18:53:03;6.90;99.90
35027;DHT22;60696;51.426;6.934;2024-02-28T18:55:29;6.90;99.90
35027;DHT22;60696;51.426;6.934;2024-02-28T18:57:55;6.90;99.90
35027;DHT22;60696;51.426;6.934;2024-02-28T19:00:21;6.90;99.90
35027;DHT22;60696;51.426;6.934;2024-02-28T19:02:51;6.90;99.90
35027;DHT22;60696;51.426;6.934;2024-02-28T19:05:17;6.90;99.90
35027;DHT22;60696;51.426;6.934;2024-02-28T19:07:43;6.90;99.90
35027;DHT22;60696;51.426;6.934;2024-02-28T19:10:09;6.90;99.90
35027;DHT22;60696;51.426;6.934;2024-02-28T19:12:35;6.90;99.90
35027;DHT22;60696;51.426;6.934;2024-02-28T19:15:00;6.80;1.00
35027;DHT22;60696;51.426;6.934;2024-02-28T19:17:27;6.90;1.00
35027;DHT22;60696;51.426;6.934;2024-02-28T19:19:53;6.90;1.00
35027;DHT22;60696;51.426;6.934;2024-02-28T19:22:19;6.90;1.00
35027;DHT22;60696;51.426;6.934;2024-02-28T19:24:50;7.00;1.00
35027;DHT22;60696;51.426;6.934;2024-02-28T19:27:16;7.00;1.00
35027;DHT22;60696;51.426;6.934;2024-02-28T19:29:42;7.00;1.00
35027;DHT22;60696;51.426;6.934;2024-02-28T19:32:09;7.00;1.00
35027;DHT22;60696;51.426;6.934;2024-02-28T19:34:35;7.10;1.00
35027;DHT22;60696;51.426;6.934;2024-02-28T19:37:00;7.10;1.00
35027;DHT22;60696;51.426;6.934;2024-02-28T19:39:26;7.10;1.00
35027;DHT22;60696;51.426;6.934;2024-02-28T19:41:51;7.30;1.00
35027;DHT22;60696;51.426;6.934;2024-02-28T19:44:17;7.30;1.00
35027;DHT22;60696;51.426;6.934;2024-02-28T19:46:44;7.30;1.00
35027;DHT22;60696;51.426;6.934;2024-02-28T19:49:10;7.30;1.00
35027;DHT22;60696;51.426;6.934;2024-02-28T19:51:36;7.30;1.00
35027;DHT22;60696;51.426;6.934;2024-02-28T19:54:02;7.40;1.00
35027;DHT22;60696;51.426;6.934;2024-02-28T19:56:29;7.30;1.00
35027;DHT22;60696;51.426;6.934;2024-02-28T19:58:55;7.40;1.00
35027;DHT22;60696;51.426;6.934;2024-02-28T20:01:21;7.40;99.90
35027;DHT22;60696;51.426;6.934;2024-02-28T20:03:47;7.50;99.90
35027;DHT22;60696;51.426;6.934;2024-02-28T20:06:13;7.40;99.90
35027;DHT22;60696;51.426;6.934;2024-02-28T20:08:39;7.40;99.90
35027;DHT22;60696;51.426;6.934;2024-02-28T20:11:06;7.40;99.90
35027;DHT22;60696;51.426;6.934;2024-02-28T20:13:33;7.40;99.90
35027;DHT22;60696;51.426;6.934;2024-02-28T20:15:59;7.30;99.90
35027;DHT22;60696;51.426;6.934;2024-02-28T20:18:24;7.30;99.90
35027;DHT22;60696;51.426;6.934;2024-02-28T20:20:52;7.30;1.00
35027;DHT22;60696;51.426;6.934;2024-02-28T20:23:18;7.20;1.00
35027;DHT22;60696;51.426;6.934;2024-02-28T20:25:44;7.20;1.00
35027;DHT22;60696;51.426;6.934;2024-02-28T20:28:10;7.20;1.00
35027;DHT22;60696;51.426;6.934;2024-02-28T20:30:36;7.10;1.00
35027;DHT22;60696;51.426;6.934;2024-02-28T20:33:03;7.10;1.00
35027;DHT22;60696;51.426;6.934;2024-02-28T20:35:29;7.10;1.00
35027;DHT22;60696;51.426;6.934;2024-02-28T20:37:55;7.10;1.00
35027;DHT22;60696;51.426;6.934;2024-02-28T20:40:21;7.10;1.00
35027;DHT22;60696;51.426;6.934;2024-02-28T20:42:49;7.00;1.00
35027;DHT22;60696;51.426;6.934;2024-02-28T20:45:15;7.10;1.00
35027;DHT22;60696;51.426;6.934;2024-02-28T20:47:41;7.10;1.00